Terminal Aerodrome Forecast
Issued by NWS

Home | Current Version | Previous Version | Text Only | Print | Product List | Glossary On
Versions: 1 2 3 4 5 6 7 8 9 10 11 12 13 14 15 16 17 18 19 20 21 22 23 24 25 26
000
FTUS42 KMLB 050539
TAFLEE
TAF
KLEE 050539Z 0506/0606 18004KT P6SM FEW050
     FM050900 VRB03KT 2SM BR SCT009 BKN020
     FM051400 21009KT P6SM SCT025 BKN035
     FM060300 30005KT P6SM BKN035 OVC060=

USA.gov is the U.S. government's official web portal to all federal, state and local government web resources and services.